sensor_id;sensor_type;location;lat;lon;timestamp;P1;durP1;ratioP1;P2;durP2;ratioP2
26965;SDS011;14522;52.068;4.414;2023-07-02T00:01:46;7.35;;;2.90;;
26965;SDS011;14522;52.068;4.414;2023-07-02T00:04:13;11.40;;;2.95;;
26965;SDS011;14522;52.068;4.414;2023-07-02T00:06:43;5.43;;;3.08;;
26965;SDS011;14522;52.068;4.414;2023-07-02T00:09:10;8.40;;;2.80;;
26965;SDS011;14522;52.068;4.414;2023-07-02T00:11:40;7.22;;;3.47;;
26965;SDS011;14522;52.068;4.414;2023-07-02T00:14:07;5.97;;;2.90;;
26965;SDS011;14522;52.068;4.414;2023-07-02T00:16:38;9.30;;;3.22;;
26965;SDS011;14522;52.068;4.414;2023-07-02T00:19:05;4.25;;;2.17;;
26965;SDS011;14522;52.068;4.414;2023-07-02T00:21:31;10.90;;;2.70;;
26965;SDS011;14522;52.068;4.414;2023-07-02T00:23:59;10.05;;;3.15;;
26965;SDS011;14522;52.068;4.414;2023-07-02T00:26:27;9.43;;;2.70;;
26965;SDS011;14522;52.068;4.414;2023-07-02T00:28:54;8.15;;;3.55;;
26965;SDS011;14522;52.068;4.414;2023-07-02T00:31:21;11.30;;;3.45;;
26965;SDS011;14522;52.068;4.414;2023-07-02T00:33:48;10.93;;;4.78;;
26965;SDS011;14522;52.068;4.414;2023-07-02T00:36:15;13.73;;;3.97;;
26965;SDS011;14522;52.068;4.414;2023-07-02T00:38:42;14.55;;;4.70;;
26965;SDS011;14522;52.068;4.414;2023-07-02T00:41:09;13.75;;;5.05;;
26965;SDS011;14522;52.068;4.414;2023-07-02T00:43:35;10.68;;;4.78;;
26965;SDS011;14522;52.068;4.414;2023-07-02T00:46:02;19.35;;;5.40;;
26965;SDS011;14522;52.068;4.414;2023-07-02T00:48:29;15.85;;;4.93;;
26965;SDS011;14522;52.068;4.414;2023-07-02T00:50:56;15.00;;;5.07;;
26965;SDS011;14522;52.068;4.414;2023-07-02T00:53:22;14.65;;;4.53;;
26965;SDS011;14522;52.068;4.414;2023-07-02T00:55:49;10.60;;;4.07;;
26965;SDS011;14522;52.068;4.414;2023-07-02T00:58:15;10.45;;;4.43;;
26965;SDS011;14522;52.068;4.414;2023-07-02T01:00:42;17.63;;;5.82;;
26965;SDS011;14522;52.068;4.414;2023-07-02T01:03:10;9.80;;;3.97;;
26965;SDS011;14522;52.068;4.414;2023-07-02T01:05:37;16.08;;;5.22;;
26965;SDS011;14522;52.068;4.414;2023-07-02T01:08:04;9.52;;;4.10;;
26965;SDS011;14522;52.068;4.414;2023-07-02T01:10:31;11.70;;;4.15;;
26965;SDS011;14522;52.068;4.414;2023-07-02T01:13:00;16.77;;;5.82;;
26965;SDS011;14522;52.068;4.414;2023-07-02T01:15:27;14.98;;;4.68;;
26965;SDS011;14522;52.068;4.414;2023-07-02T01:17:53;20.50;;;5.75;;
26965;SDS011;14522;52.068;4.414;2023-07-02T01:20:20;16.45;;;4.70;;
26965;SDS011;14522;52.068;4.414;2023-07-02T01:22:48;17.33;;;5.22;;
26965;SDS011;14522;52.068;4.414;2023-07-02T01:25:17;12.38;;;4.82;;
26965;SDS011;14522;52.068;4.414;2023-07-02T01:27:44;10.07;;;3.90;;
26965;SDS011;14522;52.068;4.414;2023-07-02T01:30:11;12.65;;;5.00;;
26965;SDS011;14522;52.068;4.414;2023-07-02T01:32:37;15.85;;;5.30;;
26965;SDS011;14522;52.068;4.414;2023-07-02T01:35:04;13.15;;;5.05;;
26965;SDS011;14522;52.068;4.414;2023-07-02T01:37:31;12.32;;;4.82;;
26965;SDS011;14522;52.068;4.414;2023-07-02T01:40:03;11.90;;;5.03;;
26965;SDS011;14522;52.068;4.414;2023-07-02T01:42:33;12.10;;;5.35;;
26965;SDS011;14522;52.068;4.414;2023-07-02T01:44:59;8.10;;;4.35;;
26965;SDS011;14522;52.068;4.414;2023-07-02T01:47:26;17.05;;;6.72;;
26965;SDS011;14522;52.068;4.414;2023-07-02T01:49:52;18.83;;;5.32;;
26965;SDS011;14522;52.068;4.414;2023-07-02T01:52:19;12.05;;;4.40;;
26965;SDS011;14522;52.068;4.414;2023-07-02T01:54:47;19.13;;;5.70;;
26965;SDS011;14522;52.068;4.414;2023-07-02T01:57:13;14.98;;;4.82;;
26965;SDS011;14522;52.068;4.414;2023-07-02T01:59:40;14.63;;;4.70;;
26965;SDS011;14522;52.068;4.414;2023-07-02T02:02:06;17.58;;;4.90;;
26965;SDS011;14522;52.068;4.414;2023-07-02T02:04:33;15.30;;;5.82;;
26965;SDS011;14522;52.068;4.414;2023-07-02T02:06:59;14.00;;;4.72;;
26965;SDS011;14522;52.068;4.414;2023-07-02T02:09:26;16.33;;;4.75;;
26965;SDS011;14522;52.068;4.414;2023-07-02T02:11:54;14.40;;;5.50;;
26965;SDS011;14522;52.068;4.414;2023-07-02T02:14:21;12.60;;;4.70;;
26965;SDS011;14522;52.068;4.414;2023-07-02T02:16:48;16.27;;;5.78;;
26965;SDS011;14522;52.068;4.414;2023-07-02T02:19:15;14.75;;;5.32;;
26965;SDS011;14522;52.068;4.414;2023-07-02T02:21:41;23.92;;;6.07;;
26965;SDS011;14522;52.068;4.414;2023-07-02T02:24:08;11.20;;;4.63;;
26965;SDS011;14522;52.068;4.414;2023-07-02T02:26:35;12.52;;;4.90;;
26965;SDS011;14522;52.068;4.414;2023-07-02T02:29:01;15.45;;;5.55;;
26965;SDS011;14522;52.068;4.414;2023-07-02T02:31:28;21.08;;;5.60;;
26965;SDS011;14522;52.068;4.414;2023-07-02T02:33:55;13.48;;;4.68;;
26965;SDS011;14522;52.068;4.414;2023-07-02T02:36:21;10.73;;;4.82;;
26965;SDS011;14522;52.068;4.414;2023-07-02T02:38:47;12.95;;;4.78;;
26965;SDS011;14522;52.068;4.414;2023-07-02T02:41:14;14.88;;;5.15;;
26965;SDS011;14522;52.068;4.414;2023-07-02T02:43:43;13.65;;;5.30;;
26965;SDS011;14522;52.068;4.414;2023-07-02T02:46:10;12.90;;;5.13;;
26965;SDS011;14522;52.068;4.414;2023-07-02T02:48:37;16.50;;;5.40;;
26965;SDS011;14522;52.068;4.414;2023-07-02T02:51:04;16.05;;;5.60;;
26965;SDS011;14522;52.068;4.414;2023-07-02T02:53:30;14.73;;;4.93;;
26965;SDS011;14522;52.068;4.414;2023-07-02T02:55:57;15.82;;;5.45;;
26965;SDS011;14522;52.068;4.414;2023-07-02T02:58:23;13.75;;;4.95;;
26965;SDS011;14522;52.068;4.414;2023-07-02T03:00:49;16.00;;;5.70;;
26965;SDS011;14522;52.068;4.414;2023-07-02T03:03:17;15.05;;;5.05;;
26965;SDS011;14522;52.068;4.414;2023-07-02T03:05:44;15.10;;;4.80;;
26965;SDS011;14522;52.068;4.414;2023-07-02T03:08:11;18.02;;;5.57;;
26965;SDS011;14522;52.068;4.414;2023-07-02T03:10:37;14.13;;;5.20;;
26965;SDS011;14522;52.068;4.414;2023-07-02T03:13:04;15.18;;;6.07;;
26965;SDS011;14522;52.068;4.414;2023-07-02T03:15:30;21.48;;;5.45;;
26965;SDS011;14522;52.068;4.414;2023-07-02T03:17:57;21.20;;;5.28;;
26965;SDS011;14522;52.068;4.414;2023-07-02T03:20:23;14.57;;;6.20;;
26965;SDS011;14522;52.068;4.414;2023-07-02T03:22:50;18.90;;;5.65;;
26965;SDS011;14522;52.068;4.414;2023-07-02T03:25:16;17.52;;;5.18;;
26965;SDS011;14522;52.068;4.414;2023-07-02T03:27:43;14.90;;;5.22;;
26965;SDS011;14522;52.068;4.414;2023-07-02T03:30:09;13.70;;;5.20;;
26965;SDS011;14522;52.068;4.414;2023-07-02T03:32:36;15.27;;;5.35;;
26965;SDS011;14522;52.068;4.414;2023-07-02T03:35:02;17.67;;;6.13;;
26965;SDS011;14522;52.068;4.414;2023-07-02T03:37:29;15.10;;;4.63;;
26965;SDS011;14522;52.068;4.414;2023-07-02T03:39:55;17.15;;;5.05;;
26965;SDS011;14522;52.068;4.414;2023-07-02T03:42:21;16.58;;;5.72;;
26965;SDS011;14522;52.068;4.414;2023-07-02T03:44:48;13.90;;;4.75;;
26965;SDS011;14522;52.068;4.414;2023-07-02T03:47:14;13.57;;;4.90;;
26965;SDS011;14522;52.068;4.414;2023-07-02T03:49:42;12.18;;;4.20;;
26965;SDS011;14522;52.068;4.414;2023-07-02T03:52:08;15.27;;;4.68;;
26965;SDS011;14522;52.068;4.414;2023-07-02T03:54:38;10.43;;;4.32;;
26965;SDS011;14522;52.068;4.414;2023-07-02T03:57:05;10.88;;;4.60;;
26965;SDS011;14522;52.068;4.414;2023-07-02T03:59:31;12.27;;;4.03;;
26965;SDS011;14522;52.068;4.414;2023-07-02T04:01:58;12.30;;;4.18;;
26965;SDS011;14522;52.068;4.414;2023-07-02T04:04:24;17.23;;;6.25;;
26965;SDS011;14522;52.068;4.414;2023-07-02T04:06:51;12.98;;;5.07;;
26965;SDS011;14522;52.068;4.414;2023-07-02T04:09:17;10.75;;;3.78;;
26965;SDS011;14522;52.068;4.414;2023-07-02T04:11:45;12.52;;;5.07;;
26965;SDS011;14522;52.068;4.414;2023-07-02T04:14:11;11.13;;;5.22;;
26965;SDS011;14522;52.068;4.414;2023-07-02T04:16:37;14.98;;;3.97;;
26965;SDS011;14522;52.068;4.414;2023-07-02T04:19:04;9.00;;;3.92;;
26965;SDS011;14522;52.068;4.414;2023-07-02T04:21:30;13.13;;;4.55;;
26965;SDS011;14522;52.068;4.414;2023-07-02T04:23:57;10.48;;;3.47;;
26965;SDS011;14522;52.068;4.414;2023-07-02T04:26:24;9.95;;;4.40;;
26965;SDS011;14522;52.068;4.414;2023-07-02T04:29:12;14.73;;;5.10;;
26965;SDS011;14522;52.068;4.414;2023-07-02T04:31:39;14.15;;;4.45;;
26965;SDS011;14522;52.068;4.414;2023-07-02T04:34:05;16.52;;;4.85;;
26965;SDS011;14522;52.068;4.414;2023-07-02T04:36:32;12.23;;;5.50;;
26965;SDS011;14522;52.068;4.414;2023-07-02T04:38:58;12.18;;;5.72;;
26965;SDS011;14522;52.068;4.414;2023-07-02T04:41:26;13.13;;;4.22;;
26965;SDS011;14522;52.068;4.414;2023-07-02T04:43:52;20.80;;;5.18;;
26965;SDS011;14522;52.068;4.414;2023-07-02T04:46:19;10.73;;;4.03;;
26965;SDS011;14522;52.068;4.414;2023-07-02T04:48:45;11.48;;;4.13;;
26965;SDS011;14522;52.068;4.414;2023-07-02T04:51:12;13.45;;;4.53;;
26965;SDS011;14522;52.068;4.414;2023-07-02T04:53:39;12.45;;;4.65;;
26965;SDS011;14522;52.068;4.414;2023-07-02T04:56:05;13.43;;;4.40;;
26965;SDS011;14522;52.068;4.414;2023-07-02T04:58:33;8.65;;;3.33;;
26965;SDS011;14522;52.068;4.414;2023-07-02T05:01:00;10.45;;;3.83;;
26965;SDS011;14522;52.068;4.414;2023-07-02T05:03:27;12.90;;;3.80;;
26965;SDS011;14522;52.068;4.414;2023-07-02T05:05:53;10.57;;;3.75;;
26965;SDS011;14522;52.068;4.414;2023-07-02T05:08:20;9.10;;;4.28;;
26965;SDS011;14522;52.068;4.414;2023-07-02T05:10:46;11.90;;;4.63;;
26965;SDS011;14522;52.068;4.414;2023-07-02T05:13:13;13.00;;;4.65;;
26965;SDS011;14522;52.068;4.414;2023-07-02T05:15:40;11.23;;;3.60;;
26965;SDS011;14522;52.068;4.414;2023-07-02T05:18:07;11.68;;;4.45;;
26965;SDS011;14522;52.068;4.414;2023-07-02T05:20:33;13.25;;;3.97;;
26965;SDS011;14522;52.068;4.414;2023-07-02T05:23:00;16.25;;;4.65;;
26965;SDS011;14522;52.068;4.414;2023-07-02T05:25:26;11.55;;;4.50;;
26965;SDS011;14522;52.068;4.414;2023-07-02T05:27:52;12.18;;;4.53;;
26965;SDS011;14522;52.068;4.414;2023-07-02T05:30:19;10.65;;;3.75;;
26965;SDS011;14522;52.068;4.414;2023-07-02T05:32:45;13.85;;;4.47;;
26965;SDS011;14522;52.068;4.414;2023-07-02T05:35:12;11.43;;;4.60;;
26965;SDS011;14522;52.068;4.414;2023-07-02T05:37:38;9.18;;;3.85;;
26965;SDS011;14522;52.068;4.414;2023-07-02T05:40:05;11.02;;;4.20;;
26965;SDS011;14522;52.068;4.414;2023-07-02T05:42:32;8.57;;;3.70;;
26965;SDS011;14522;52.068;4.414;2023-07-02T05:44:58;13.95;;;3.70;;
26965;SDS011;14522;52.068;4.414;2023-07-02T05:47:24;9.93;;;4.07;;
26965;SDS011;14522;52.068;4.414;2023-07-02T05:49:55;9.50;;;3.90;;
26965;SDS011;14522;52.068;4.414;2023-07-02T05:52:21;11.65;;;3.85;;
26965;SDS011;14522;52.068;4.414;2023-07-02T05:54:48;12.63;;;4.68;;
26965;SDS011;14522;52.068;4.414;2023-07-02T05:57:15;15.73;;;3.95;;
26965;SDS011;14522;52.068;4.414;2023-07-02T05:59:41;11.18;;;4.20;;
26965;SDS011;14522;52.068;4.414;2023-07-02T06:02:08;13.88;;;3.85;;
26965;SDS011;14522;52.068;4.414;2023-07-02T06:04:34;12.30;;;4.35;;
26965;SDS011;14522;52.068;4.414;2023-07-02T06:07:01;14.45;;;4.60;;
26965;SDS011;14522;52.068;4.414;2023-07-02T06:09:27;9.02;;;3.58;;
26965;SDS011;14522;52.068;4.414;2023-07-02T06:11:54;11.32;;;4.07;;
26965;SDS011;14522;52.068;4.414;2023-07-02T06:14:20;14.82;;;4.38;;
26965;SDS011;14522;52.068;4.414;2023-07-02T06:16:48;12.82;;;3.40;;
26965;SDS011;14522;52.068;4.414;2023-07-02T06:19:14;13.45;;;3.75;;
26965;SDS011;14522;52.068;4.414;2023-07-02T06:21:40;10.73;;;3.25;;
26965;SDS011;14522;52.068;4.414;2023-07-02T06:24:07;9.32;;;3.65;;
26965;SDS011;14522;52.068;4.414;2023-07-02T06:26:33;11.27;;;3.85;;
26965;SDS011;14522;52.068;4.414;2023-07-02T06:29:00;12.55;;;4.03;;
26965;SDS011;14522;52.068;4.414;2023-07-02T06:31:26;13.50;;;4.55;;
26965;SDS011;14522;52.068;4.414;2023-07-02T06:33:53;9.40;;;3.55;;
26965;SDS011;14522;52.068;4.414;2023-07-02T06:36:19;14.13;;;4.47;;
26965;SDS011;14522;52.068;4.414;2023-07-02T06:38:46;11.73;;;3.75;;
26965;SDS011;14522;52.068;4.414;2023-07-02T06:41:12;14.70;;;4.57;;
26965;SDS011;14522;52.068;4.414;2023-07-02T06:43:41;13.60;;;3.65;;
26965;SDS011;14522;52.068;4.414;2023-07-02T06:46:09;13.75;;;4.47;;
26965;SDS011;14522;52.068;4.414;2023-07-02T06:48:35;11.65;;;3.75;;
26965;SDS011;14522;52.068;4.414;2023-07-02T06:51:02;13.10;;;4.10;;
26965;SDS011;14522;52.068;4.414;2023-07-02T06:53:28;11.63;;;4.18;;
26965;SDS011;14522;52.068;4.414;2023-07-02T06:55:55;14.75;;;3.80;;
26965;SDS011;14522;52.068;4.414;2023-07-02T06:58:21;10.13;;;4.13;;
26965;SDS011;14522;52.068;4.414;2023-07-02T07:00:48;11.43;;;3.53;;
26965;SDS011;14522;52.068;4.414;2023-07-02T07:03:15;8.38;;;3.47;;
26965;SDS011;14522;52.068;4.414;2023-07-02T07:05:42;13.10;;;3.85;;
26965;SDS011;14522;52.068;4.414;2023-07-02T07:08:08;9.07;;;3.22;;
26965;SDS011;14522;52.068;4.414;2023-07-02T07:10:34;8.50;;;3.95;;
26965;SDS011;14522;52.068;4.414;2023-07-02T07:13:01;9.98;;;2.97;;
26965;SDS011;14522;52.068;4.414;2023-07-02T07:15:33;8.40;;;3.03;;
26965;SDS011;14522;52.068;4.414;2023-07-02T07:18:01;9.98;;;3.58;;
26965;SDS011;14522;52.068;4.414;2023-07-02T07:20:28;9.80;;;3.83;;
26965;SDS011;14522;52.068;4.414;2023-07-02T07:22:54;10.95;;;3.65;;
26965;SDS011;14522;52.068;4.414;2023-07-02T07:25:21;11.48;;;3.78;;
26965;SDS011;14522;52.068;4.414;2023-07-02T07:27:47;7.55;;;3.10;;
26965;SDS011;14522;52.068;4.414;2023-07-02T07:30:14;10.68;;;3.13;;
26965;SDS011;14522;52.068;4.414;2023-07-02T07:32:41;11.00;;;3.28;;
26965;SDS011;14522;52.068;4.414;2023-07-02T07:35:07;12.82;;;4.18;;
26965;SDS011;14522;52.068;4.414;2023-07-02T07:37:34;9.35;;;3.05;;
26965;SDS011;14522;52.068;4.414;2023-07-02T07:40:00;10.57;;;3.47;;
26965;SDS011;14522;52.068;4.414;2023-07-02T07:42:27;12.07;;;3.90;;
26965;SDS011;14522;52.068;4.414;2023-07-02T07:44:53;9.23;;;3.47;;
26965;SDS011;14522;52.068;4.414;2023-07-02T07:47:19;16.77;;;4.05;;
26965;SDS011;14522;52.068;4.414;2023-07-02T07:49:46;11.65;;;3.67;;
26965;SDS011;14522;52.068;4.414;2023-07-02T07:52:12;14.82;;;3.78;;
26965;SDS011;14522;52.068;4.414;2023-07-02T07:54:39;7.18;;;3.00;;
26965;SDS011;14522;52.068;4.414;2023-07-02T07:57:06;11.80;;;4.38;;
26965;SDS011;14522;52.068;4.414;2023-07-02T07:59:32;10.68;;;3.63;;
26965;SDS011;14522;52.068;4.414;2023-07-02T08:02:00;9.85;;;3.70;;
26965;SDS011;14522;52.068;4.414;2023-07-02T08:04:27;8.23;;;3.33;;
26965;SDS011;14522;52.068;4.414;2023-07-02T08:06:53;10.40;;;3.08;;
26965;SDS011;14522;52.068;4.414;2023-07-02T08:09:21;12.27;;;3.88;;
26965;SDS011;14522;52.068;4.414;2023-07-02T08:11:47;7.47;;;2.92;;
26965;SDS011;14522;52.068;4.414;2023-07-02T08:14:13;11.05;;;3.50;;
26965;SDS011;14522;52.068;4.414;2023-07-02T08:16:40;10.63;;;3.58;;
26965;SDS011;14522;52.068;4.414;2023-07-02T08:19:07;7.93;;;3.47;;
26965;SDS011;14522;52.068;4.414;2023-07-02T08:21:33;9.55;;;3.28;;
26965;SDS011;14522;52.068;4.414;2023-07-02T08:24:00;12.75;;;3.58;;
26965;SDS011;14522;52.068;4.414;2023-07-02T08:26:26;12.32;;;3.53;;
26965;SDS011;14522;52.068;4.414;2023-07-02T08:28:53;7.03;;;2.65;;
26965;SDS011;14522;52.068;4.414;2023-07-02T08:31:19;14.27;;;3.13;;
26965;SDS011;14522;52.068;4.414;2023-07-02T08:33:46;13.60;;;3.70;;
26965;SDS011;14522;52.068;4.414;2023-07-02T08:36:12;9.20;;;3.85;;
26965;SDS011;14522;52.068;4.414;2023-07-02T08:38:40;13.10;;;3.63;;
26965;SDS011;14522;52.068;4.414;2023-07-02T08:41:08;11.43;;;3.28;;
26965;SDS011;14522;52.068;4.414;2023-07-02T08:43:35;10.20;;;4.35;;
26965;SDS011;14522;52.068;4.414;2023-07-02T08:46:02;10.07;;;3.25;;
26965;SDS011;14522;52.068;4.414;2023-07-02T08:48:28;13.02;;;3.33;;
26965;SDS011;14522;52.068;4.414;2023-07-02T08:50:56;9.48;;;2.95;;
26965;SDS011;14522;52.068;4.414;2023-07-02T08:53:22;6.78;;;2.83;;
26965;SDS011;14522;52.068;4.414;2023-07-02T08:55:55;13.73;;;3.70;;
26965;SDS011;14522;52.068;4.414;2023-07-02T08:58:22;10.57;;;3.72;;
26965;SDS011;14522;52.068;4.414;2023-07-02T09:01:08;11.10;;;3.08;;
26965;SDS011;14522;52.068;4.414;2023-07-02T09:03:35;11.60;;;3.45;;
26965;SDS011;14522;52.068;4.414;2023-07-02T09:06:06;11.40;;;2.88;;
26965;SDS011;14522;52.068;4.414;2023-07-02T09:08:33;11.05;;;2.90;;
26965;SDS011;14522;52.068;4.414;2023-07-02T09:11:10;7.43;;;3.00;;
26965;SDS011;14522;52.068;4.414;2023-07-02T09:13:46;8.60;;;2.92;;
26965;SDS011;14522;52.068;4.414;2023-07-02T09:16:30;8.70;;;3.10;;
26965;SDS011;14522;52.068;4.414;2023-07-02T09:19:04;6.32;;;2.78;;
26965;SDS011;14522;52.068;4.414;2023-07-02T09:24:20;16.42;;;3.60;;
26965;SDS011;14522;52.068;4.414;2023-07-02T09:26:48;9.90;;;3.35;;
26965;SDS011;14522;52.068;4.414;2023-07-02T09:29:21;16.52;;;3.28;;
26965;SDS011;14522;52.068;4.414;2023-07-02T09:31:49;9.75;;;3.17;;
26965;SDS011;14522;52.068;4.414;2023-07-02T09:34:35;12.03;;;2.77;;
26965;SDS011;14522;52.068;4.414;2023-07-02T09:37:02;11.98;;;3.10;;
26965;SDS011;14522;52.068;4.414;2023-07-02T09:39:35;7.13;;;2.42;;
26965;SDS011;14522;52.068;4.414;2023-07-02T09:42:02;7.60;;;2.47;;
26965;SDS011;14522;52.068;4.414;2023-07-02T09:44:31;8.15;;;2.72;;
26965;SDS011;14522;52.068;4.414;2023-07-02T09:47:00;7.63;;;2.33;;
26965;SDS011;14522;52.068;4.414;2023-07-02T09:49:28;5.65;;;2.53;;
26965;SDS011;14522;52.068;4.414;2023-07-02T09:51:58;12.45;;;2.75;;
26965;SDS011;14522;52.068;4.414;2023-07-02T09:54:25;8.07;;;2.47;;
26965;SDS011;14522;52.068;4.414;2023-07-02T09:56:51;7.72;;;2.53;;
26965;SDS011;14522;52.068;4.414;2023-07-02T09:59:18;10.38;;;2.90;;
26965;SDS011;14522;52.068;4.414;2023-07-02T10:01:44;8.10;;;3.00;;
26965;SDS011;14522;52.068;4.414;2023-07-02T10:04:14;6.70;;;2.63;;
26965;SDS011;14522;52.068;4.414;2023-07-02T10:06:47;6.78;;;2.75;;
26965;SDS011;14522;52.068;4.414;2023-07-02T10:09:14;6.78;;;2.83;;
26965;SDS011;14522;52.068;4.414;2023-07-02T10:11:41;6.70;;;2.08;;
26965;SDS011;14522;52.068;4.414;2023-07-02T10:14:07;6.43;;;2.22;;
26965;SDS011;14522;52.068;4.414;2023-07-02T10:16:34;5.40;;;1.88;;
26965;SDS011;14522;52.068;4.414;2023-07-02T10:19:10;7.70;;;2.17;;
26965;SDS011;14522;52.068;4.414;2023-07-02T10:21:37;11.13;;;3.00;;
26965;SDS011;14522;52.068;4.414;2023-07-02T10:24:13;5.82;;;2.45;;
26965;SDS011;14522;52.068;4.414;2023-07-02T10:26:51;10.75;;;2.88;;
26965;SDS011;14522;52.068;4.414;2023-07-02T10:29:21;6.03;;;2.65;;
26965;SDS011;14522;52.068;4.414;2023-07-02T10:31:48;7.78;;;2.90;;
26965;SDS011;14522;52.068;4.414;2023-07-02T10:34:15;6.40;;;2.38;;
26965;SDS011;14522;52.068;4.414;2023-07-02T10:36:41;7.30;;;3.17;;
26965;SDS011;14522;52.068;4.414;2023-07-02T10:39:08;9.82;;;2.60;;
26965;SDS011;14522;52.068;4.414;2023-07-02T10:41:34;8.85;;;2.88;;
26965;SDS011;14522;52.068;4.414;2023-07-02T10:44:04;9.05;;;3.08;;
26965;SDS011;14522;52.068;4.414;2023-07-02T10:46:31;8.07;;;2.65;;
26965;SDS011;14522;52.068;4.414;2023-07-02T10:48:58;9.88;;;3.20;;
26965;SDS011;14522;52.068;4.414;2023-07-02T10:51:24;9.77;;;3.03;;
26965;SDS011;14522;52.068;4.414;2023-07-02T10:53:56;10.77;;;3.10;;
26965;SDS011;14522;52.068;4.414;2023-07-02T10:56:23;8.05;;;3.05;;
26965;SDS011;14522;52.068;4.414;2023-07-02T10:58:50;10.18;;;2.83;;
26965;SDS011;14522;52.068;4.414;2023-07-02T11:01:24;8.73;;;2.28;;
26965;SDS011;14522;52.068;4.414;2023-07-02T11:04:01;11.05;;;3.20;;
26965;SDS011;14522;52.068;4.414;2023-07-02T11:06:28;7.53;;;3.20;;
26965;SDS011;14522;52.068;4.414;2023-07-02T11:08:55;8.63;;;3.05;;
26965;SDS011;14522;52.068;4.414;2023-07-02T11:11:22;10.30;;;3.60;;
26965;SDS011;14522;52.068;4.414;2023-07-02T11:13:51;10.13;;;3.70;;
26965;SDS011;14522;52.068;4.414;2023-07-02T11:18:44;8.40;;;2.95;;
26965;SDS011;14522;52.068;4.414;2023-07-02T11:21:11;7.90;;;3.35;;
26965;SDS011;14522;52.068;4.414;2023-07-02T11:23:37;10.77;;;3.65;;
26965;SDS011;14522;52.068;4.414;2023-07-02T11:26:04;7.80;;;3.50;;
26965;SDS011;14522;52.068;4.414;2023-07-02T11:28:31;13.70;;;3.80;;
26965;SDS011;14522;52.068;4.414;2023-07-02T11:30:57;10.98;;;3.72;;
26965;SDS011;14522;52.068;4.414;2023-07-02T11:38:26;10.25;;;2.88;;
26965;SDS011;14522;52.068;4.414;2023-07-02T11:40:53;5.53;;;2.28;;
26965;SDS011;14522;52.068;4.414;2023-07-02T11:43:19;7.53;;;2.83;;
26965;SDS011;14522;52.068;4.414;2023-07-02T11:45:46;14.18;;;3.45;;
26965;SDS011;14522;52.068;4.414;2023-07-02T11:48:12;10.60;;;3.40;;
26965;SDS011;14522;52.068;4.414;2023-07-02T11:50:39;8.57;;;3.03;;
26965;SDS011;14522;52.068;4.414;2023-07-02T11:53:05;6.22;;;2.70;;
26965;SDS011;14522;52.068;4.414;2023-07-02T11:55:31;15.13;;;3.60;;
26965;SDS011;14522;52.068;4.414;2023-07-02T11:57:58;7.22;;;3.53;;
26965;SDS011;14522;52.068;4.414;2023-07-02T12:00:24;12.35;;;3.78;;
26965;SDS011;14522;52.068;4.414;2023-07-02T12:02:52;9.43;;;3.63;;
26965;SDS011;14522;52.068;4.414;2023-07-02T12:05:18;10.15;;;5.18;;
26965;SDS011;14522;52.068;4.414;2023-07-02T12:07:45;9.13;;;3.63;;
26965;SDS011;14522;52.068;4.414;2023-07-02T12:10:11;8.40;;;3.30;;
26965;SDS011;14522;52.068;4.414;2023-07-02T12:12:38;13.27;;;3.80;;
26965;SDS011;14522;52.068;4.414;2023-07-02T12:15:04;10.98;;;4.72;;
26965;SDS011;14522;52.068;4.414;2023-07-02T12:17:31;8.07;;;3.28;;
26965;SDS011;14522;52.068;4.414;2023-07-02T12:19:58;8.40;;;3.55;;
26965;SDS011;14522;52.068;4.414;2023-07-02T12:22:24;7.45;;;2.95;;
26965;SDS011;14522;52.068;4.414;2023-07-02T12:24:51;8.77;;;2.92;;
26965;SDS011;14522;52.068;4.414;2023-07-02T12:27:19;7.85;;;2.80;;
26965;SDS011;14522;52.068;4.414;2023-07-02T12:29:46;9.43;;;3.42;;
26965;SDS011;14522;52.068;4.414;2023-07-02T12:32:12;13.65;;;3.92;;
26965;SDS011;14522;52.068;4.414;2023-07-02T12:34:39;7.75;;;3.30;;
26965;SDS011;14522;52.068;4.414;2023-07-02T12:37:05;7.32;;;3.20;;
26965;SDS011;14522;52.068;4.414;2023-07-02T12:39:32;7.72;;;3.78;;
26965;SDS011;14522;52.068;4.414;2023-07-02T12:41:58;10.55;;;4.32;;
26965;SDS011;14522;52.068;4.414;2023-07-02T12:44:24;11.60;;;3.60;;
26965;SDS011;14522;52.068;4.414;2023-07-02T12:46:51;6.63;;;2.85;;
26965;SDS011;14522;52.068;4.414;2023-07-02T12:49:17;9.68;;;3.58;;
26965;SDS011;14522;52.068;4.414;2023-07-02T12:51:44;10.82;;;3.78;;
26965;SDS011;14522;52.068;4.414;2023-07-02T12:54:10;6.63;;;3.17;;
26965;SDS011;14522;52.068;4.414;2023-07-02T12:56:37;9.07;;;3.53;;
26965;SDS011;14522;52.068;4.414;2023-07-02T12:59:03;9.15;;;2.65;;
26965;SDS011;14522;52.068;4.414;2023-07-02T13:01:29;9.52;;;2.90;;
26965;SDS011;14522;52.068;4.414;2023-07-02T13:03:56;7.60;;;3.30;;
26965;SDS011;14522;52.068;4.414;2023-07-02T13:06:23;6.40;;;2.90;;
26965;SDS011;14522;52.068;4.414;2023-07-02T13:08:49;9.38;;;3.40;;
26965;SDS011;14522;52.068;4.414;2023-07-02T13:11:16;13.45;;;3.67;;
26965;SDS011;14522;52.068;4.414;2023-07-02T13:13:42;7.63;;;3.25;;
26965;SDS011;14522;52.068;4.414;2023-07-02T13:16:09;11.80;;;3.33;;
26965;SDS011;14522;52.068;4.414;2023-07-02T13:18:35;8.55;;;3.60;;
26965;SDS011;14522;52.068;4.414;2023-07-02T13:21:01;8.82;;;2.75;;
26965;SDS011;14522;52.068;4.414;2023-07-02T13:23:28;7.43;;;3.38;;
26965;SDS011;14522;52.068;4.414;2023-07-02T13:25:54;8.88;;;3.20;;
26965;SDS011;14522;52.068;4.414;2023-07-02T13:28:21;9.15;;;3.38;;
26965;SDS011;14522;52.068;4.414;2023-07-02T13:30:48;7.57;;;2.88;;
26965;SDS011;14522;52.068;4.414;2023-07-02T13:33:14;7.72;;;2.67;;
26965;SDS011;14522;52.068;4.414;2023-07-02T13:35:41;5.65;;;2.50;;
26965;SDS011;14522;52.068;4.414;2023-07-02T13:38:07;7.78;;;2.50;;
26965;SDS011;14522;52.068;4.414;2023-07-02T13:40:33;5.90;;;2.53;;
26965;SDS011;14522;52.068;4.414;2023-07-02T13:43:00;11.65;;;3.15;;
26965;SDS011;14522;52.068;4.414;2023-07-02T13:45:26;5.47;;;2.83;;
26965;SDS011;14522;52.068;4.414;2023-07-02T13:47:54;4.82;;;2.50;;
26965;SDS011;14522;52.068;4.414;2023-07-02T13:50:21;9.45;;;2.80;;
26965;SDS011;14522;52.068;4.414;2023-07-02T13:52:48;6.13;;;2.88;;
26965;SDS011;14522;52.068;4.414;2023-07-02T13:55:15;9.63;;;2.60;;
26965;SDS011;14522;52.068;4.414;2023-07-02T13:57:42;6.57;;;2.60;;
26965;SDS011;14522;52.068;4.414;2023-07-02T14:00:08;5.93;;;2.38;;
26965;SDS011;14522;52.068;4.414;2023-07-02T14:02:35;5.47;;;2.58;;
26965;SDS011;14522;52.068;4.414;2023-07-02T14:05:02;8.60;;;2.58;;
26965;SDS011;14522;52.068;4.414;2023-07-02T14:07:30;3.85;;;2.03;;
26965;SDS011;14522;52.068;4.414;2023-07-02T14:09:56;7.68;;;3.00;;
26965;SDS011;14522;52.068;4.414;2023-07-02T14:12:23;8.20;;;2.53;;
26965;SDS011;14522;52.068;4.414;2023-07-02T14:14:50;7.72;;;3.17;;
26965;SDS011;14522;52.068;4.414;2023-07-02T14:17:16;13.40;;;2.72;;
26965;SDS011;14522;52.068;4.414;2023-07-02T14:19:43;3.80;;;1.98;;
26965;SDS011;14522;52.068;4.414;2023-07-02T14:22:10;9.05;;;2.55;;
26965;SDS011;14522;52.068;4.414;2023-07-02T14:24:36;6.65;;;3.08;;
26965;SDS011;14522;52.068;4.414;2023-07-02T14:27:03;6.00;;;2.25;;
26965;SDS011;14522;52.068;4.414;2023-07-02T14:29:29;7.80;;;2.13;;
26965;SDS011;14522;52.068;4.414;2023-07-02T14:31:56;4.43;;;2.25;;
26965;SDS011;14522;52.068;4.414;2023-07-02T14:34:22;7.47;;;2.55;;
26965;SDS011;14522;52.068;4.414;2023-07-02T14:36:48;6.72;;;2.25;;
26965;SDS011;14522;52.068;4.414;2023-07-02T14:39:15;12.13;;;3.22;;
26965;SDS011;14522;52.068;4.414;2023-07-02T14:41:41;8.10;;;2.85;;
26965;SDS011;14522;52.068;4.414;2023-07-02T14:44:08;6.85;;;2.85;;
26965;SDS011;14522;52.068;4.414;2023-07-02T14:46:34;8.15;;;2.58;;
26965;SDS011;14522;52.068;4.414;2023-07-02T14:49:01;8.60;;;2.88;;
26965;SDS011;14522;52.068;4.414;2023-07-02T14:51:27;6.55;;;3.58;;